Time;durP1;ratioP1;P1;durP2;ratioP2;P2;SDS_P1;SDS_P2;PMS_P1;PMS_P2;Temp;Humidity;BMP_temperature;BMP_pressure;BME280_temperature;BME280_humidity;BME280_pressure;Samples;Min_cycle;Max_cycle;Signal;HPM_P1;HPM_P2
2021/04/01 00:00:35;;;;;;;72.22;44.17;;;13.10;75.10;;;;;;5054059;28;20040;-73
2021/04/01 00:03:01;;;;;;;80.43;49.28;;;13.10;75.50;;;;;;5054638;28;20033;-73
2021/04/01 00:05:28;;;;;;;73.65;46.08;;;13.10;75.30;;;;;;5053644;28;20074;-73
2021/04/01 00:07:54;;;;;;;71.97;47.25;;;13.10;75.30;;;;;;5054361;28;20044;-73
2021/04/01 00:10:25;;;;;;;75.05;45.75;;;13.00;75.80;;;;;;5053844;28;20392;-73
2021/04/01 00:12:50;;;;;;;80.65;47.63;;;13.00;75.70;;;;;;5053914;28;20041;-73
2021/04/01 00:15:17;;;;;;;76.97;47.55;;;13.00;75.60;;;;;;5053851;28;20090;-73
2021/04/01 00:17:43;;;;;;;73.78;44.08;;;13.00;75.50;;;;;;5053577;28;20037;-73
2021/04/01 00:20:12;;;;;;;76.65;45.85;;;13.10;75.40;;;;;;5053368;28;20056;-73
2021/04/01 00:22:39;;;;;;;73.97;45.75;;;13.10;75.60;;;;;;5053715;28;20049;-74
2021/04/01 00:25:07;;;;;;;75.85;46.20;;;13.10;75.60;;;;;;5053423;28;20115;-74
2021/04/01 00:27:33;;;;;;;79.03;47.05;;;13.10;75.60;;;;;;5053623;28;20131;-73
2021/04/01 00:29:59;;;;;;;77.93;46.50;;;13.00;76.40;;;;;;5053518;28;20048;-73
2021/04/01 00:32:24;;;;;;;76.22;45.97;;;13.10;77.30;;;;;;5036146;28;20033;-73
2021/04/01 00:34:50;;;;;;;74.63;46.78;;;13.00;77.00;;;;;;5053112;28;20438;-73
2021/04/01 00:37:16;;;;;;;80.40;49.15;;;13.00;77.20;;;;;;5053376;28;20408;-73
2021/04/01 00:39:41;;;;;;;83.68;49.97;;;13.00;77.00;;;;;;5053439;28;20446;-73
2021/04/01 00:42:07;;;;;;;87.13;50.92;;;13.10;77.00;;;;;;5053558;28;20404;-73
2021/04/01 00:44:34;;;;;;;80.70;50.67;;;13.00;77.10;;;;;;5035461;28;20377;-74
2021/04/01 00:47:00;;;;;;;85.93;51.67;;;13.00;77.00;;;;;;5053261;28;20477;-73
2021/04/01 00:49:25;;;;;;;89.88;52.92;;;13.00;77.10;;;;;;5053881;28;20059;-73
2021/04/01 00:51:51;;;;;;;87.05;53.53;;;12.90;77.10;;;;;;5053307;28;20045;-74
2021/04/01 00:54:17;;;;;;;85.00;52.97;;;13.00;77.20;;;;;;5035329;28;20124;-74
2021/04/01 00:56:43;;;;;;;90.13;54.95;;;12.90;76.90;;;;;;5053036;28;20164;-73
2021/04/01 00:59:09;;;;;;;91.22;54.05;;;12.90;76.70;;;;;;5053607;28;20037;-73
2021/04/01 01:04:01;;;;;;;83.60;52.67;;;12.90;76.60;;;;;;5053135;28;20035;-73
2021/04/01 01:06:27;;;;;;;91.40;55.72;;;12.90;76.50;;;;;;5052776;28;20497;-74
2021/04/01 01:08:52;;;;;;;95.45;56.25;;;12.90;76.40;;;;;;5053083;28;20652;-73
2021/04/01 01:11:18;;;;;;;87.68;56.60;;;12.90;76.40;;;;;;5053076;28;20040;-73
2021/04/01 01:13:44;;;;;;;88.93;53.15;;;12.90;76.30;;;;;;5053187;28;20037;-73
2021/04/01 01:16:10;;;;;;;93.18;54.28;;;12.90;76.50;;;;;;5035188;28;20041;-73
2021/04/01 01:18:36;;;;;;;92.13;57.22;;;12.90;76.40;;;;;;5052862;28;20044;-73
2021/04/01 01:21:06;;;;;;;90.72;52.78;;;12.80;76.60;;;;;;5053271;28;20067;-73
2021/04/01 01:23:33;;;;;;;89.22;53.42;;;12.80;76.60;;;;;;5052972;28;20041;-73
2021/04/01 01:26:00;;;;;;;96.15;55.63;;;12.90;76.80;;;;;;5052579;28;20041;-73
2021/04/01 01:28:26;;;;;;;89.57;54.00;;;12.90;77.10;;;;;;5053218;28;20091;-73
2021/04/01 01:30:53;;;;;;;97.53;58.80;;;12.90;77.30;;;;;;5035458;28;20153;-74
2021/04/01 01:33:21;;;;;;;96.65;57.13;;;12.80;77.60;;;;;;5054885;28;20116;-74
2021/04/01 01:35:48;;;;;;;97.50;57.47;;;12.80;77.70;;;;;;5056553;28;20127;-74
2021/04/01 01:38:15;;;;;;;100.00;58.50;;;12.80;77.50;;;;;;5056864;28;20048;-74
2021/04/01 01:40:41;;;;;;;105.05;58.17;;;12.80;77.40;;;;;;5056657;28;20102;-74
2021/04/01 01:43:10;;;;;;;96.53;56.92;;;12.70;77.20;;;;;;5056705;28;20037;-74
2021/04/01 01:45:36;;;;;;;91.25;55.35;;;12.80;76.80;;;;;;5056480;28;20049;-73
2021/04/01 01:48:03;;;;;;;93.35;54.08;;;12.80;76.60;;;;;;5056555;28;20048;-74
2021/04/01 01:50:32;;;;;;;97.38;56.03;;;12.70;76.60;;;;;;5057090;28;20099;-73
2021/04/01 01:52:58;;;;;;;99.18;54.65;;;12.70;76.40;;;;;;5056550;28;20116;-73
2021/04/01 01:55:25;;;;;;;97.00;52.55;;;12.60;74.80;;;;;;5056268;28;20037;-73
2021/04/01 01:57:51;;;;;;;97.13;52.92;;;12.60;73.80;;;;;;5056731;28;20146;-73
2021/04/01 02:00:20;;;;;;;96.57;52.80;;;12.60;73.10;;;;;;5056584;28;20041;-73
2021/04/01 02:02:54;;;;;;;95.13;52.28;;;12.60;72.50;;;;;;5056945;28;20393;-74
2021/04/01 02:05:21;;;;;;;93.75;51.05;;;12.60;72.30;;;;;;5056042;28;20111;-73
2021/04/01 02:07:48;;;;;;;91.35;54.75;;;12.70;72.20;;;;;;5056185;28;20158;-73
2021/04/01 02:10:16;;;;;;;100.40;55.20;;;12.60;72.20;;;;;;5056431;28;20048;-73
2021/04/01 02:12:42;;;;;;;93.88;53.85;;;12.60;72.00;;;;;;5056160;28;20045;-73
2021/04/01 02:15:13;;;;;;;97.22;55.15;;;12.60;72.00;;;;;;5055748;28;20029;-73
2021/04/01 02:17:39;;;;;;;98.13;56.28;;;12.50;71.80;;;;;;5055902;28;20032;-73
2021/04/01 02:20:06;;;;;;;96.80;54.40;;;12.50;72.00;;;;;;5056168;28;20552;-73
2021/04/01 02:22:32;;;;;;;92.63;52.88;;;12.50;71.90;;;;;;5038132;28;20039;-73
2021/04/01 02:25:01;;;;;;;97.35;55.13;;;12.50;71.70;;;;;;5055890;28;20041;-74
2021/04/01 02:27:26;;;;;;;100.82;54.17;;;12.40;71.60;;;;;;5056148;28;20041;-73
2021/04/01 02:29:52;;;;;;;94.88;54.53;;;12.30;71.50;;;;;;5055908;28;20059;-73
2021/04/01 02:32:18;;;;;;;100.13;53.92;;;12.30;71.70;;;;;;5055882;28;20452;-73
2021/04/01 02:34:44;;;;;;;98.30;54.88;;;12.30;71.90;;;;;;5055477;28;20033;-73
2021/04/01 02:37:10;;;;;;;94.50;53.92;;;12.30;71.90;;;;;;5055738;28;20370;-73
2021/04/01 02:39:35;;;;;;;96.57;53.58;;;12.20;71.60;;;;;;5055819;28;20037;-73
2021/04/01 02:42:01;;;;;;;104.78;58.45;;;12.20;71.30;;;;;;5055741;28;20040;-73
2021/04/01 02:44:27;;;;;;;93.28;54.40;;;12.20;71.40;;;;;;5054498;28;20039;-74
2021/04/01 02:46:53;;;;;;;100.85;53.13;;;12.20;71.50;;;;;;5055321;28;20041;-73
2021/04/01 02:49:18;;;;;;;103.15;56.05;;;12.20;71.60;;;;;;5037733;28;20072;-73
2021/04/01 02:51:44;;;;;;;96.90;56.03;;;12.10;71.60;;;;;;5055977;28;20045;-73
2021/04/01 02:54:10;;;;;;;96.65;52.38;;;12.10;71.60;;;;;;5055386;28;20037;-73
2021/04/01 02:56:36;;;;;;;99.38;54.45;;;12.00;71.40;;;;;;5055499;28;20044;-73
2021/04/01 02:59:01;;;;;;;105.53;56.83;;;12.00;71.50;;;;;;5055853;28;20033;-73
2021/04/01 03:01:27;;;;;;;105.22;57.22;;;11.90;71.60;;;;;;5055212;28;20048;-74
2021/04/01 03:03:55;;;;;;;100.05;54.47;;;11.80;72.00;;;;;;5055385;28;20041;-73
2021/04/01 03:06:21;;;;;;;104.95;57.70;;;11.80;72.20;;;;;;5054703;28;20041;-73
2021/04/01 03:08:47;;;;;;;104.38;56.05;;;11.70;72.40;;;;;;5055484;28;20063;-73
2021/04/01 03:11:13;;;;;;;102.57;55.88;;;11.60;72.60;;;;;;5054947;28;20074;-73
2021/04/01 03:13:39;;;;;;;104.88;56.35;;;11.60;72.60;;;;;;5055025;28;20052;-73
2021/04/01 03:16:05;;;;;;;104.28;56.40;;;11.60;72.80;;;;;;5054989;28;20116;-73
2021/04/01 03:18:30;;;;;;;100.68;54.95;;;11.60;73.00;;;;;;5054834;28;20064;-73
2021/04/01 03:20:56;;;;;;;97.75;54.00;;;11.60;72.90;;;;;;5054850;28;20044;-72
2021/04/01 03:23:22;;;;;;;97.50;57.55;;;11.50;73.00;;;;;;5055104;28;20052;-73
2021/04/01 03:25:48;;;;;;;99.40;55.20;;;11.40;73.30;;;;;;5054400;28;20037;-73
2021/04/01 03:28:16;;;;;;;105.82;56.80;;;11.40;74.00;;;;;;5054702;28;20033;-73
2021/04/01 03:30:48;;;;;;;106.05;55.28;;;11.50;74.20;;;;;;5054723;28;20188;-73
2021/04/01 03:33:14;;;;;;;96.60;53.95;;;11.50;74.00;;;;;;5054877;28;20044;-73
2021/04/01 03:35:39;;;;;;;99.75;52.88;;;11.50;74.70;;;;;;5054477;28;20536;-73
2021/04/01 03:38:06;;;;;;;99.05;54.13;;;11.40;74.90;;;;;;5054871;28;20509;-73
2021/04/01 03:40:32;;;;;;;92.55;53.60;;;11.30;75.20;;;;;;5054730;28;20037;-73
2021/04/01 03:42:58;;;;;;;93.78;52.60;;;11.30;75.50;;;;;;5054763;28;20106;-73
2021/04/01 03:45:24;;;;;;;98.90;54.92;;;11.20;76.00;;;;;;5054090;28;20055;-73
2021/04/01 03:47:49;;;;;;;94.03;50.85;;;11.10;75.80;;;;;;5054219;28;20083;-73
2021/04/01 03:50:15;;;;;;;91.35;49.78;;;10.80;76.40;;;;;;5054332;28;20073;-73
2021/04/01 03:52:42;;;;;;;94.72;51.67;;;10.80;76.70;;;;;;5054373;28;20094;-73
2021/04/01 03:55:26;;;;;;;85.35;50.15;;;10.60;77.20;;;;;;5052980;28;20455;-73
2021/04/01 03:57:56;;;;;;;87.93;50.40;;;10.60;77.70;;;;;;5036406;28;20068;-73
2021/04/01 04:00:26;;;;;;;85.28;49.65;;;10.50;78.10;;;;;;5054467;28;20123;-73
2021/04/01 04:02:57;;;;;;;88.68;50.33;;;10.40;78.10;;;;;;5053996;28;20041;-73
2021/04/01 04:08:07;;;;;;;88.05;49.55;;;10.50;78.70;;;;;;5054669;28;20055;-73
2021/04/01 04:15:46;;;;;;;85.75;50.88;;;10.40;78.70;;;;;;5053632;28;20037;-73
2021/04/01 04:18:12;;;;;;;89.80;51.10;;;10.30;78.70;;;;;;5053958;28;20400;-73
2021/04/01 04:20:40;;;;;;;92.38;52.70;;;10.30;78.70;;;;;;5053886;28;20098;-73
2021/04/01 04:23:06;;;;;;;89.60;52.80;;;10.20;79.00;;;;;;5053583;28;20488;-73
2021/04/01 04:25:34;;;;;;;89.88;51.28;;;10.20;79.20;;;;;;5053427;28;20041;-73
2021/04/01 04:28:26;;;;;;;98.20;53.45;;;10.20;79.40;;;;;;5053870;28;20045;-73
2021/04/01 04:30:46;;;;;;;87.25;51.20;;;10.10;79.70;;;;;;5053311;28;20049;-73
2021/04/01 04:33:12;;;;;;;96.00;54.92;;;9.90;80.10;;;;;;5053482;28;20048;-73
2021/04/01 04:35:37;;;;;;;90.68;52.45;;;9.90;80.60;;;;;;5053365;28;20071;-73
2021/04/01 04:38:04;;;;;;;105.35;54.45;;;9.80;80.90;;;;;;5053845;28;20033;-73
2021/04/01 04:40:29;;;;;;;93.13;54.88;;;9.80;81.30;;;;;;5053534;28;20120;-73
2021/04/01 04:42:55;;;;;;;102.35;58.03;;;9.70;81.60;;;;;;5053413;28;20437;-73
2021/04/01 04:45:21;;;;;;;107.47;59.38;;;9.40;82.30;;;;;;5035288;28;20386;-73
2021/04/01 04:47:46;;;;;;;112.85;63.15;;;9.50;83.40;;;;;;5053197;28;20033;-73
2021/04/01 04:50:13;;;;;;;113.43;62.00;;;9.40;83.20;;;;;;5053203;28;20045;-73
2021/04/01 04:52:39;;;;;;;123.63;68.93;;;9.30;83.60;;;;;;5053193;28;20439;-73
2021/04/01 04:55:07;;;;;;;122.63;67.53;;;9.30;84.00;;;;;;5052916;28;20082;-73
2021/04/01 04:57:42;;;;;;;117.97;68.68;;;9.20;84.80;;;;;;5053553;28;20048;-73
2021/04/01 05:05:26;;;;;;;125.18;68.35;;;8.90;86.40;;;;;;5052726;28;20059;-73
2021/04/01 05:07:52;;;;;;;124.57;69.20;;;8.70;87.50;;;;;;5035013;28;20087;-73
2021/04/01 05:10:18;;;;;;;124.30;64.07;;;8.70;87.80;;;;;;5053385;28;20489;-73
2021/04/01 05:12:48;;;;;;;112.50;62.78;;;8.60;88.30;;;;;;5035333;28;20418;-73
2021/04/01 05:15:14;;;;;;;111.45;57.60;;;8.50;89.00;;;;;;5052579;28;20044;-73
2021/04/01 05:17:39;;;;;;;103.78;54.72;;;8.50;89.40;;;;;;5052772;28;20037;-73
2021/04/01 05:20:06;;;;;;;73.32;43.45;;;8.40;89.90;;;;;;5053370;28;20094;-73
2021/04/01 05:25:06;;;;;;;68.88;34.47;;;8.30;90.10;;;;;;5052980;28;20048;-73
2021/04/01 05:30:01;;;;;;;44.38;21.25;;;8.10;90.00;;;;;;5052767;28;20037;-73
2021/04/01 05:32:30;;;;;;;44.78;20.77;;;8.10;90.00;;;;;;5052839;28;20041;-73
2021/04/01 05:34:56;;;;;;;35.28;15.25;;;8.00;90.10;;;;;;5052469;28;20033;-73
2021/04/01 05:37:25;;;;;;;29.48;12.95;;;8.00;90.00;;;;;;5052770;28;20067;-73
2021/04/01 05:39:51;;;;;;;22.65;8.55;;;7.90;89.90;;;;;;5052797;28;20485;-73
2021/04/01 05:42:20;;;;;;;25.83;8.20;;;7.90;89.40;;;;;;5052781;28;20044;-73
2021/04/01 05:44:53;;;;;;;19.88;7.28;;;7.90;89.40;;;;;;5052702;28;20065;-73
2021/04/01 05:55:36;;;;;;;21.80;4.63;;;7.80;88.70;;;;;;5052475;28;20036;-73
2021/04/01 06:03:40;;;;;;;21.35;4.82;;;7.80;87.90;;;;;;5052500;28;20083;-73
2021/04/01 06:06:09;;;;;;;25.08;4.72;;;7.80;87.40;;;;;;5052207;28;20461;-73
2021/04/01 06:08:44;;;;;;;25.55;4.85;;;7.90;86.90;;;;;;5035190;28;20068;-73
2021/04/01 06:11:10;;;;;;;20.60;4.43;;;7.90;86.60;;;;;;5052720;28;20123;-73
2021/04/01 06:14:07;;;;;;;22.58;3.80;;;7.90;86.00;;;;;;5052780;28;20531;-73
2021/04/01 06:16:38;;;;;;;16.98;3.63;;;8.10;85.70;;;;;;5052021;28;20064;-73
2021/04/01 06:19:06;;;;;;;16.08;4.63;;;8.10;85.10;;;;;;5053867;28;20370;-73
2021/04/01 06:21:43;;;;;;;19.35;3.30;;;8.20;84.60;;;;;;5055831;28;20064;-73
2021/04/01 06:24:29;;;;;;;22.65;4.63;;;8.30;84.20;;;;;;5056430;28;20041;-73
2021/04/01 06:27:05;;;;;;;14.02;3.45;;;8.40;83.50;;;;;;5037966;28;20061;-73
2021/04/01 06:29:33;;;;;;;16.73;3.75;;;8.50;83.20;;;;;;5055780;28;20033;-73
2021/04/01 06:32:03;;;;;;;21.13;3.03;;;8.60;82.90;;;;;;5055726;28;20037;-73
2021/04/01 06:34:42;;;;;;;21.63;4.10;;;8.70;82.40;;;;;;5055478;28;20033;-73
2021/04/01 06:40:06;;;;;;;15.00;4.07;;;9.10;82.10;;;;;;5055469;28;20041;-73
2021/04/01 06:43:01;;;;;;;20.25;5.43;;;8.90;81.90;;;;;;5055013;28;20049;-73
2021/04/01 06:45:29;;;;;;;17.50;3.88;;;9.10;81.70;;;;;;5055074;28;20034;-73
2021/04/01 06:47:57;;;;;;;21.15;3.88;;;9.30;81.60;;;;;;5055398;28;20396;-73
2021/04/01 06:50:28;;;;;;;13.18;3.95;;;9.00;81.50;;;;;;5037396;28;20076;-73
2021/04/01 06:53:09;;;;;;;24.90;4.55;;;9.30;81.50;;;;;;5054891;28;20040;-72
2021/04/01 06:55:49;;;;;;;14.95;4.80;;;9.40;81.70;;;;;;5054848;28;20040;-73
2021/04/01 07:01:02;;;;;;;22.80;3.65;;;9.50;81.10;;;;;;5055374;28;20106;-73
2021/04/01 07:03:39;;;;;;;16.70;4.07;;;9.60;81.00;;;;;;5037909;28;20079;-73
2021/04/01 07:06:14;;;;;;;19.80;4.20;;;9.50;81.10;;;;;;5055256;28;20044;-73
2021/04/01 07:09:27;;;;;;;17.77;4.10;;;9.50;81.70;;;;;;5037471;28;20422;-73
2021/04/01 07:14:09;;;;;;;19.95;5.10;;;9.70;81.50;;;;;;5055543;28;20040;-73
2021/04/01 07:16:53;;;;;;;25.95;4.78;;;9.80;81.60;;;;;;5036756;28;20048;-73
2021/04/01 07:19:33;;;;;;;18.65;4.30;;;9.80;81.00;;;;;;5054682;28;20037;-73
2021/04/01 07:47:26;;;;;;;19.50;4.65;;;9.00;85.00;;;;;;5054606;28;20033;-73
2021/04/01 07:49:54;;;;;;;32.97;6.20;;;8.90;86.00;;;;;;5054307;28;20497;-73
2021/04/01 07:52:25;;;;;;;19.15;4.80;;;8.80;86.50;;;;;;5054545;28;20068;-72
2021/04/01 08:03:53;;;;;;;26.38;8.00;;;8.60;87.20;;;;;;5054194;28;20041;-73
2021/04/01 08:06:21;;;;;;;20.70;5.57;;;8.70;88.00;;;;;;5053521;28;20507;-72
2021/04/01 08:08:50;;;;;;;12.13;5.63;;;8.60;87.60;;;;;;5036428;28;20489;-73
2021/04/01 08:11:32;;;;;;;14.45;4.28;;;8.60;87.60;;;;;;5036024;28;20035;-73
2021/04/01 08:14:18;;;;;;;18.20;4.35;;;8.60;87.30;;;;;;5054024;28;20489;-73
2021/04/01 08:17:00;;;;;;;14.98;3.33;;;8.60;87.10;;;;;;5036105;28;20048;-73
2021/04/01 08:19:28;;;;;;;14.32;3.70;;;8.70;86.60;;;;;;5053765;28;20064;-73
2021/04/01 08:21:57;;;;;;;11.73;2.83;;;8.80;85.90;;;;;;5053899;28;20404;-73
2021/04/01 08:24:46;;;;;;;9.40;3.20;;;8.90;85.50;;;;;;5053403;28;20037;-73
2021/04/01 08:27:53;;;;;;;17.63;3.85;;;9.10;85.10;;;;;;5053785;28;20041;-73
2021/04/01 08:35:41;;;;;;;11.77;3.15;;;10.10;82.90;;;;;;5053099;28;20037;-73
2021/04/01 08:38:12;;;;;;;10.68;2.33;;;10.30;81.50;;;;;;5053545;28;20120;-73
2021/04/01 08:40:42;;;;;;;13.93;2.83;;;10.60;79.70;;;;;;5053244;28;20542;-73
2021/04/01 08:43:36;;;;;;;9.48;2.38;;;10.80;79.00;;;;;;5053122;28;20121;-73
2021/04/01 08:46:28;;;;;;;10.50;2.20;;;10.60;77.60;;;;;;5053198;28;20033;-73
2021/04/01 08:49:12;;;;;;;14.00;2.13;;;10.10;78.50;;;;;;5042849;28;20041;-74
2021/04/01 08:52:12;;;;;;;12.23;1.98;;;9.80;79.50;;;;;;5053622;28;20029;-73
2021/04/01 08:55:10;;;;;;;13.48;2.42;;;10.20;79.00;;;;;;5052892;28;20041;-73
2021/04/01 08:58:00;;;;;;;9.13;2.25;;;10.40;78.40;;;;;;5053641;28;20033;-72
2021/04/01 09:00:32;;;;;;;13.93;2.75;;;10.10;78.60;;;;;;5053661;28;20052;-72
2021/04/01 09:02:59;;;;;;;11.23;2.63;;;10.10;78.20;;;;;;5053249;28;20037;-72
2021/04/01 09:05:25;;;;;;;12.77;2.22;;;10.40;78.70;;;;;;5053106;28;20059;-72
2021/04/01 09:07:57;;;;;;;9.73;2.00;;;10.50;77.50;;;;;;5053346;28;20481;-72
2021/04/01 09:10:29;;;;;;;9.15;2.25;;;10.40;76.70;;;;;;5053215;28;20049;-72
2021/04/01 09:13:08;;;;;;;10.63;2.03;;;10.40;76.50;;;;;;5053124;28;20033;-72
2021/04/01 09:15:47;;;;;;;19.75;2.67;;;10.30;77.20;;;;;;5052819;28;20079;-72
2021/04/01 09:18:28;;;;;;;15.68;2.72;;;10.30;76.80;;;;;;5053003;28;20075;-72
2021/04/01 09:20:57;;;;;;;8.65;2.20;;;10.40;77.40;;;;;;5035321;28;20083;-72
2021/04/01 09:23:32;;;;;;;22.23;3.50;;;10.60;77.40;;;;;;5053077;28;20041;-72
2021/04/01 09:25:59;;;;;;;14.75;2.97;;;10.00;76.50;;;;;;5052637;28;20041;-72
2021/04/01 09:28:30;;;;;;;21.60;3.28;;;10.00;77.90;;;;;;5035206;28;20080;-72
2021/04/01 09:30:59;;;;;;;12.90;3.10;;;10.40;77.70;;;;;;5052817;28;20452;-72
2021/04/01 09:33:28;;;;;;;11.88;2.50;;;10.70;77.10;;;;;;5035051;28;20033;-72
2021/04/01 09:36:11;;;;;;;12.23;3.28;;;10.40;75.60;;;;;;5052630;28;20045;-72
2021/04/01 09:38:39;;;;;;;10.33;2.67;;;10.00;76.40;;;;;;5035709;28;20036;-73
2021/04/01 09:41:06;;;;;;;12.27;2.63;;;10.10;76.90;;;;;;5053014;28;20045;-73
2021/04/01 09:43:32;;;;;;;16.60;3.50;;;10.50;76.50;;;;;;5052689;28;20481;-73
2021/04/01 09:46:13;;;;;;;13.82;4.18;;;10.80;75.90;;;;;;5034894;28;20037;-73
2021/04/01 09:49:00;;;;;;;18.35;3.17;;;10.70;75.30;;;;;;5053063;28;20485;-72
2021/04/01 09:51:30;;;;;;;21.63;4.25;;;10.50;75.70;;;;;;5052556;28;20048;-72
2021/04/01 09:53:56;;;;;;;16.63;3.65;;;10.40;76.00;;;;;;5054374;28;20040;-73
2021/04/01 09:56:40;;;;;;;17.05;3.40;;;10.20;75.70;;;;;;5055934;28;20485;-72
2021/04/01 09:59:06;;;;;;;17.20;3.53;;;10.30;76.20;;;;;;5039355;28;20033;-73
2021/04/01 10:04:14;;;;;;;22.08;4.10;;;10.00;76.60;;;;;;5056870;28;20351;-73
2021/04/01 10:06:43;;;;;;;16.17;3.38;;;10.10;76.20;;;;;;5056062;28;20111;-73
2021/04/01 10:09:14;;;;;;;16.77;3.47;;;10.30;76.10;;;;;;5056746;28;20115;-72
2021/04/01 10:11:47;;;;;;;20.83;3.72;;;10.70;75.70;;;;;;5056140;28;20033;-73
2021/04/01 10:14:14;;;;;;;10.32;2.58;;;10.80;74.60;;;;;;5056187;28;20045;-73
2021/04/01 10:17:01;;;;;;;17.40;3.35;;;10.70;74.50;;;;;;5056088;28;20033;-73
2021/04/01 10:19:42;;;;;;;18.10;3.78;;;10.40;75.10;;;;;;5056313;28;20090;-73
2021/04/01 10:22:20;;;;;;;10.95;2.63;;;10.30;76.00;;;;;;5056308;28;20065;-73
2021/04/01 10:24:46;;;;;;;17.73;3.28;;;10.50;75.30;;;;;;5055652;28;20495;-73
2021/04/01 10:27:38;;;;;;;12.88;3.13;;;10.60;75.60;;;;;;5055820;28;20547;-73
2021/04/01 10:30:08;;;;;;;11.75;3.50;;;10.70;75.70;;;;;;5056386;28;20037;-73
2021/04/01 10:32:52;;;;;;;16.77;3.92;;;10.60;74.50;;;;;;5055846;28;20049;-72
2021/04/01 10:35:27;;;;;;;17.35;4.97;;;10.60;74.00;;;;;;5055538;28;20037;-73
2021/04/01 10:37:57;;;;;;;20.35;3.20;;;10.40;74.10;;;;;;5055875;28;20091;-73
2021/04/01 10:40:24;;;;;;;11.05;2.90;;;10.30;74.60;;;;;;5055526;28;20072;-73
2021/04/01 10:43:06;;;;;;;13.77;4.05;;;10.10;75.00;;;;;;5055518;28;20446;-73
2021/04/01 10:45:40;;;;;;;12.40;3.22;;;10.10;74.60;;;;;;5055426;28;20452;-73
2021/04/01 10:48:18;;;;;;;17.63;3.22;;;10.10;74.60;;;;;;5037733;28;20036;-73
2021/04/01 10:50:44;;;;;;;22.95;3.65;;;9.80;74.40;;;;;;5055698;28;20092;-73
2021/04/01 10:53:24;;;;;;;16.08;4.00;;;9.90;75.00;;;;;;5055546;28;20048;-73
2021/04/01 10:55:51;;;;;;;17.42;3.72;;;9.90;75.00;;;;;;5055148;28;20037;-73
2021/04/01 10:58:18;;;;;;;13.40;3.33;;;9.90;75.20;;;;;;5055399;28;20113;-73
2021/04/01 11:00:55;;;;;;;18.23;3.65;;;10.10;74.30;;;;;;5055307;28;20099;-73
2021/04/01 11:03:25;;;;;;;23.70;4.53;;;10.20;73.60;;;;;;5055494;28;20055;-73
2021/04/01 11:05:52;;;;;;;14.15;4.05;;;10.20;73.60;;;;;;5054431;28;20033;-73
2021/04/01 11:08:21;;;;;;;13.48;3.50;;;10.00;74.60;;;;;;5055347;28;20106;-73
2021/04/01 11:10:57;;;;;;;14.13;3.22;;;9.90;73.60;;;;;;5054967;28;20073;-72
2021/04/01 11:13:32;;;;;;;11.70;3.20;;;10.00;73.50;;;;;;5055216;28;20041;-73
2021/04/01 11:16:02;;;;;;;13.60;3.03;;;9.90;72.70;;;;;;5054812;28;20098;-72
2021/04/01 11:18:28;;;;;;;18.50;4.72;;;10.10;73.10;;;;;;5055093;28;20089;-73
2021/04/01 11:20:56;;;;;;;10.07;2.92;;;10.00;72.30;;;;;;5054894;28;20040;-73
2021/04/01 11:23:25;;;;;;;14.45;3.63;;;9.90;72.10;;;;;;5054801;28;20044;-73
2021/04/01 11:25:56;;;;;;;18.67;3.53;;;10.10;72.30;;;;;;5054510;28;20041;-73
2021/04/01 11:28:42;;;;;;;18.42;3.80;;;10.00;71.60;;;;;;5054878;28;20091;-72
2021/04/01 11:31:10;;;;;;;15.65;3.40;;;9.80;71.60;;;;;;5055082;28;20041;-72
2021/04/01 11:33:37;;;;;;;11.52;2.83;;;9.90;71.90;;;;;;5054991;28;20496;-73
2021/04/01 11:36:14;;;;;;;14.00;3.13;;;9.90;72.20;;;;;;5054469;28;20048;-73
2021/04/01 11:38:46;;;;;;;9.20;2.60;;;9.90;72.10;;;;;;5054651;28;20065;-73
2021/04/01 11:41:18;;;;;;;18.75;3.63;;;9.90;72.10;;;;;;5054387;28;20044;-73
2021/04/01 11:43:48;;;;;;;11.57;3.47;;;10.00;70.40;;;;;;5054539;28;20091;-73
2021/04/01 11:46:20;;;;;;;12.13;3.53;;;10.00;71.10;;;;;;5054211;28;20045;-73
2021/04/01 11:48:47;;;;;;;18.40;4.10;;;9.80;70.70;;;;;;5054405;28;20370;-73
2021/04/01 11:51:19;;;;;;;15.68;3.30;;;9.70;71.50;;;;;;5054162;28;20469;-73
2021/04/01 11:53:45;;;;;;;12.43;3.30;;;10.00;70.60;;;;;;5054093;28;20049;-73
2021/04/01 11:56:11;;;;;;;26.38;3.95;;;10.10;70.90;;;;;;5052845;28;20090;-73
2021/04/01 11:58:37;;;;;;;15.48;4.55;;;9.90;70.50;;;;;;5053417;28;20115;-72
2021/04/01 12:01:14;;;;;;;16.25;4.95;;;9.80;70.50;;;;;;5052430;28;20107;-73
2021/04/01 12:03:49;;;;;;;12.93;3.10;;;10.00;70.80;;;;;;5053837;28;20063;-73
2021/04/01 12:06:16;;;;;;;14.65;2.95;;;10.10;68.90;;;;;;5054146;28;20040;-73
2021/04/01 12:08:43;;;;;;;13.68;3.95;;;9.90;68.50;;;;;;5036310;28;20060;-72
2021/04/01 12:11:09;;;;;;;15.32;3.10;;;9.80;70.10;;;;;;5053840;28;20040;-73
2021/04/01 12:13:34;;;;;;;14.48;4.38;;;9.80;70.70;;;;;;5053961;28;20043;-73
2021/04/01 12:16:00;;;;;;;18.58;4.00;;;9.50;70.00;;;;;;5052709;28;20477;-73
2021/04/01 12:18:39;;;;;;;13.65;2.85;;;9.70;70.70;;;;;;5053499;28;20059;-72
2021/04/01 12:21:09;;;;;;;21.10;3.50;;;9.70;69.10;;;;;;5053512;28;20499;-73
2021/04/01 12:23:43;;;;;;;22.92;4.00;;;9.60;69.70;;;;;;5053446;28;20484;-73
2021/04/01 12:26:09;;;;;;;18.20;4.05;;;9.60;71.10;;;;;;5053280;28;20037;-72
2021/04/01 12:28:34;;;;;;;14.40;3.03;;;9.70;71.30;;;;;;5053437;28;20126;-73
2021/04/01 12:31:00;;;;;;;9.73;3.10;;;9.70;71.60;;;;;;5053389;28;20110;-72
2021/04/01 12:33:27;;;;;;;13.40;2.85;;;9.90;72.40;;;;;;5053536;28;20045;-72
2021/04/01 12:35:57;;;;;;;8.93;3.72;;;9.80;71.90;;;;;;5052974;28;20037;-72
2021/04/01 12:38:42;;;;;;;9.80;2.63;;;9.80;71.80;;;;;;5053618;28;20061;-72
2021/04/01 12:41:20;;;;;;;9.90;2.78;;;9.90;72.00;;;;;;5053370;28;20090;-72
2021/04/01 12:43:47;;;;;;;10.98;3.05;;;9.80;71.30;;;;;;5053362;28;20250;-72
2021/04/01 12:46:13;;;;;;;10.48;3.88;;;9.60;72.60;;;;;;5052941;28;20190;-72
2021/04/01 12:48:41;;;;;;;11.68;3.65;;;9.50;73.10;;;;;;5053312;28;20441;-72
2021/04/01 12:51:08;;;;;;;16.50;3.83;;;9.60;73.10;;;;;;5053572;28;20041;-72
2021/04/01 12:53:34;;;;;;;15.93;3.72;;;9.50;74.20;;;;;;5053094;28;20049;-72
2021/04/01 12:58:44;;;;;;;11.05;2.70;;;9.10;76.20;;;;;;5053209;28;20116;-73
2021/04/01 13:01:12;;;;;;;9.38;3.35;;;9.00;77.20;;;;;;5052969;28;20036;-73
2021/04/01 13:03:37;;;;;;;7.40;2.25;;;8.80;77.90;;;;;;5052637;28;20115;-72
2021/04/01 13:06:08;;;;;;;12.88;2.90;;;8.90;78.20;;;;;;5052659;28;20045;-72
2021/04/01 13:08:49;;;;;;;7.68;2.35;;;8.70;78.30;;;;;;5052986;28;20064;-73
2021/04/01 13:11:17;;;;;;;12.73;2.95;;;8.80;79.20;;;;;;5053041;28;20401;-72
2021/04/01 13:13:43;;;;;;;10.40;2.95;;;8.80;80.00;;;;;;5053295;28;20049;-72
2021/04/01 13:16:09;;;;;;;8.88;3.25;;;8.70;79.50;;;;;;5052702;28;20037;-72
2021/04/01 13:18:36;;;;;;;15.70;3.47;;;8.70;79.40;;;;;;5034999;28;20476;-72
2021/04/01 13:21:03;;;;;;;9.35;3.20;;;8.70;80.00;;;;;;5053121;28;20065;-73
2021/04/01 13:23:43;;;;;;;6.13;2.78;;;8.70;80.50;;;;;;5035060;28;20067;-72
2021/04/01 13:26:11;;;;;;;12.00;3.42;;;8.60;80.70;;;;;;5052601;28;20400;-72
2021/04/01 13:28:38;;;;;;;10.23;4.30;;;8.60;80.90;;;;;;5055557;28;20089;-72
2021/04/01 13:31:04;;;;;;;9.45;3.10;;;8.30;80.70;;;;;;5056950;28;20049;-72
2021/04/01 13:33:44;;;;;;;6.70;2.97;;;8.30;81.40;;;;;;5056898;28;20037;-70
2021/04/01 13:36:18;;;;;;;13.07;3.30;;;8.30;80.80;;;;;;5056504;28;20029;-73
2021/04/01 13:38:44;;;;;;;14.63;4.35;;;8.20;80.60;;;;;;5056049;28;20033;-71
2021/04/01 13:41:13;;;;;;;7.97;3.42;;;8.40;79.80;;;;;;5054724;28;20443;-71
2021/04/01 13:43:39;;;;;;;8.05;3.70;;;8.30;80.20;;;;;;5054390;28;20102;-72
2021/04/01 13:46:05;;;;;;;11.07;3.42;;;8.30;79.80;;;;;;5054134;28;20504;-71
2021/04/01 13:48:32;;;;;;;11.60;3.83;;;8.30;79.80;;;;;;5036819;28;20119;-71
2021/04/01 13:51:21;;;;;;;10.68;3.30;;;8.40;80.30;;;;;;5054454;28;20051;-72
2021/04/01 13:56:38;;;;;;;16.88;4.47;;;8.50;80.50;;;;;;5056187;28;20037;-71
2021/04/01 13:59:25;;;;;;;8.88;4.05;;;8.50;80.20;;;;;;5056463;28;20044;-71
2021/04/01 14:10:14;;;;;;;8.63;3.90;;;8.30;79.20;;;;;;5056553;28;20037;-69
2021/04/01 14:12:47;;;;;;;8.82;3.45;;;8.50;79.60;;;;;;5056092;28;20377;-70
2021/04/01 14:15:13;;;;;;;8.18;3.17;;;8.50;78.70;;;;;;5055964;28;20044;-70
2021/04/01 14:17:39;;;;;;;7.20;3.38;;;8.50;78.90;;;;;;5056358;28;20409;-70
2021/04/01 14:20:11;;;;;;;14.05;3.20;;;8.60;78.70;;;;;;5038761;28;20094;-70
2021/04/01 14:22:39;;;;;;;7.03;2.85;;;8.60;78.60;;;;;;5056081;28;20040;-70
2021/04/01 14:25:13;;;;;;;12.77;2.90;;;8.50;78.70;;;;;;5055745;28;20448;-70
2021/04/01 14:27:45;;;;;;;6.35;2.65;;;8.60;79.10;;;;;;5056156;28;20037;-70
2021/04/01 14:30:14;;;;;;;10.10;3.15;;;8.80;78.50;;;;;;5056211;28;20041;-70